Time;durP1;ratioP1;P1;durP2;ratioP2;P2;SDS_P1;SDS_P2;PMS_P1;PMS_P2;Temp;Humidity;BMP_temperature;BMP_pressure;BME280_temperature;BME280_humidity;BME280_pressure;Samples;Min_cycle;Max_cycle;Signal;HPM_P1;HPM_P2
2022/06/21 00:01:34;;;;;;;8.97;3.47;;;;;;;21.86;42.07;99657.75;123790;1099;104242;-79
2022/06/21 00:04:05;;;;;;;6.67;3.30;;;;;;;21.86;42.40;99651.51;123838;1098;104348;-78
2022/06/21 00:06:37;;;;;;;8.73;3.60;;;;;;;21.80;43.00;99644.54;123543;1099;104715;-79
2022/06/21 00:09:10;;;;;;;6.47;3.30;;;;;;;21.75;42.23;99650.89;123764;1099;104316;-79
2022/06/21 00:11:42;;;;;;;5.00;3.60;;;;;;;21.69;43.26;99652.80;123856;1099;104294;-79
2022/06/21 00:14:13;;;;;;;8.30;3.87;;;;;;;21.68;43.37;99663.52;123511;1099;104256;-80
2022/06/21 00:16:45;;;;;;;6.67;3.43;;;;;;;21.66;43.24;99650.20;123861;1099;104265;-79
2022/06/21 00:19:22;;;;;;;7.67;3.63;;;;;;;21.67;42.35;99651.07;123783;1099;104437;-79
2022/06/21 00:21:54;;;;;;;7.67;3.33;;;;;;;21.64;42.81;99644.00;123822;1099;104377;-79
2022/06/21 00:24:25;;;;;;;11.30;3.70;;;;;;;21.61;43.20;99644.08;123814;1099;104272;-79
2022/06/21 00:26:57;;;;;;;7.23;3.70;;;;;;;21.60;42.79;99649.45;123568;1098;104331;-79
2022/06/21 00:29:28;;;;;;;7.80;3.50;;;;;;;21.60;43.24;99634.33;123568;1098;104262;-79
2022/06/21 00:31:59;;;;;;;6.77;3.60;;;;;;;21.59;43.03;99635.23;123829;1099;104258;-79
2022/06/21 00:34:31;;;;;;;7.73;3.50;;;;;;;21.55;43.74;99625.56;123596;1099;104396;-79
2022/06/21 00:37:03;;;;;;;6.17;3.10;;;;;;;21.54;43.97;99634.47;123766;1099;104210;-78
2022/06/21 00:39:34;;;;;;;5.20;3.10;;;;;;;21.59;43.23;99643.24;123543;1099;104255;-79
2022/06/21 00:42:17;;;;;;;4.67;3.53;;;;;;;21.57;43.52;99638.88;123807;1099;104232;-79
2022/06/21 00:45:00;;;;;;;4.80;3.20;;;;;;;21.56;43.32;99642.45;123813;1099;104345;-78
2022/06/21 00:47:36;;;;;;;7.07;3.13;;;;;;;21.51;44.02;99640.75;123753;1097;104210;-78
2022/06/21 00:50:18;;;;;;;8.80;3.73;;;;;;;21.51;44.61;99640.75;123844;1099;104363;-78
2022/06/21 00:52:55;;;;;;;9.37;3.27;;;;;;;21.50;44.08;99628.34;123535;1099;104230;-79
2022/06/21 00:55:35;;;;;;;7.97;3.00;;;;;;;21.50;44.47;99625.67;123534;1099;104472;-78
2022/06/21 00:58:10;;;;;;;7.43;3.60;;;;;;;21.50;44.32;99623.00;123776;1099;118854;-78
2022/06/21 01:00:53;;;;;;;11.83;3.53;;;;;;;21.48;44.28;99606.09;123538;1098;104195;-79
2022/06/21 01:03:28;;;;;;;10.23;3.33;;;;;;;21.49;44.45;99605.22;123811;1099;104317;-78
2022/06/21 01:06:02;;;;;;;6.20;3.13;;;;;;;21.46;44.50;99589.24;124107;1099;104313;-79
2022/06/21 01:08:38;;;;;;;7.23;3.20;;;;;;;21.44;44.23;99574.17;123890;1098;104269;-79
2022/06/21 01:11:14;;;;;;;6.03;3.23;;;;;;;21.41;44.69;99564.47;123916;1099;104238;-79
2022/06/21 01:13:51;;;;;;;9.30;3.70;;;;;;;21.38;44.26;99564.55;123559;1099;104348;-80
2022/06/21 01:16:24;;;;;;;9.03;3.80;;;;;;;21.35;44.50;99552.14;123914;1099;104741;-80
2022/06/21 01:18:56;;;;;;;9.57;3.80;;;;;;;21.36;44.20;99545.00;123847;1099;104242;-79
2022/06/21 01:21:32;;;;;;;12.53;4.03;;;;;;;21.33;45.31;99545.97;123791;1099;104245;-78
2022/06/21 01:24:13;;;;;;;9.70;3.53;;;;;;;21.31;45.35;99533.56;123889;1099;104329;-79
2022/06/21 01:26:53;;;;;;;6.67;3.43;;;;;;;21.30;45.21;99545.14;123530;1099;104676;-79
2022/06/21 01:29:28;;;;;;;7.87;3.67;;;;;;;21.21;44.37;99561.36;123898;1099;104364;-79
2022/06/21 01:32:03;;;;;;;9.17;3.80;;;;;;;21.10;44.98;99565.17;123858;1098;104594;-79
2022/06/21 01:34:35;;;;;;;10.80;4.00;;;;;;;21.05;44.73;99559.07;123662;1099;104233;-80
2022/06/21 01:37:11;;;;;;;14.00;3.83;;;;;;;21.02;44.94;99551.14;124059;1099;104351;-80
2022/06/21 01:39:51;;;;;;;7.80;3.93;;;;;;;21.00;44.69;99544.94;123646;1099;104444;-79
2022/06/21 01:42:29;;;;;;;9.17;3.70;;;;;;;20.96;45.48;99551.27;124044;1099;104364;-79
2022/06/21 01:45:05;;;;;;;10.13;3.90;;;;;;;20.87;46.02;99552.34;123947;1099;104717;-78
2022/06/21 01:47:45;;;;;;;9.35;3.90;;;;;;;20.79;45.68;99573.83;123901;1099;104347;-78
2022/06/21 01:50:20;;;;;;;7.03;3.63;;;;;;;20.78;45.81;99569.39;123937;1099;104306;-80
2022/06/21 01:52:55;;;;;;;8.70;3.73;;;;;;;20.76;46.45;99570.36;124036;1099;104383;-80
2022/06/21 01:55:34;;;;;;;6.33;3.67;;;;;;;20.73;45.84;99567.75;123626;1097;104262;-79
2022/06/21 01:58:10;;;;;;;8.90;3.60;;;;;;;20.71;46.08;99565.13;123829;1099;104412;-79
2022/06/21 02:00:47;;;;;;;11.07;3.80;;;;;;;20.74;46.68;99565.06;123998;1099;104881;-79
2022/06/21 02:03:23;;;;;;;6.30;3.67;;;;;;;20.73;46.24;99565.09;123490;1102;104453;-79
2022/06/21 02:05:59;;;;;;;9.60;4.00;;;;;;;20.71;46.83;99559.80;123864;1099;104552;-79
2022/06/21 02:08:37;;;;;;;9.27;3.63;;;;;;;20.68;46.53;99557.19;123878;1099;104339;-79
2022/06/21 02:11:16;;;;;;;9.23;4.00;;;;;;;20.65;46.18;99560.78;123876;1099;104386;-79
2022/06/21 02:14:28;;;;;;;5.33;3.50;;;;;;;20.64;46.17;99560.78;123949;1099;104274;-80
2022/06/21 02:16:49;;;;;;;6.93;3.90;;;;;;;20.65;47.05;99557.25;123810;1099;104389;-79
2022/06/21 02:19:27;;;;;;;6.77;3.60;;;;;;;20.65;46.30;99552.79;123744;1099;104582;-79
2022/06/21 02:21:58;;;;;;;7.40;3.80;;;;;;;20.65;47.46;99552.79;123923;1099;104411;-79
2022/06/21 02:24:30;;;;;;;9.03;3.73;;;;;;;20.65;46.37;99546.59;123748;1099;104520;-79
2022/06/21 02:27:04;;;;;;;9.30;3.80;;;;;;;20.66;46.55;99548.33;123554;1099;104496;-78
2022/06/21 02:29:36;;;;;;;7.00;3.70;;;;;;;20.69;47.29;99545.59;123779;1099;104402;-79
2022/06/21 02:32:15;;;;;;;7.80;3.50;;;;;;;20.72;47.43;99547.33;123788;1099;104335;-78
2022/06/21 02:34:49;;;;;;;7.70;3.30;;;;;;;20.75;46.29;99541.94;123904;1099;104256;-79
2022/06/21 02:37:20;;;;;;;7.87;3.67;;;;;;;20.76;47.00;99533.04;123764;1097;104232;-79
2022/06/21 02:39:53;;;;;;;9.73;3.87;;;;;;;20.75;46.85;99531.27;123591;1099;104373;-78
2022/06/21 02:42:29;;;;;;;8.03;3.87;;;;;;;20.74;47.55;99534.84;123866;1099;104431;-79
2022/06/21 02:45:08;;;;;;;8.13;3.70;;;;;;;20.73;47.02;99535.77;123794;1098;104344;-78
2022/06/21 02:47:44;;;;;;;8.57;3.73;;;;;;;20.76;46.68;99541.91;123852;1099;104256;-79
2022/06/21 02:50:26;;;;;;;8.67;3.80;;;;;;;20.79;47.36;99539.17;123861;1099;105604;-79
2022/06/21 02:53:00;;;;;;;8.73;3.97;;;;;;;20.80;47.89;99535.61;123852;1099;104240;-79
2022/06/21 02:55:43;;;;;;;8.18;3.60;;;;;;;20.83;46.95;99532.88;123966;1099;104389;-79
2022/06/21 02:58:23;;;;;;;17.93;4.40;;;;;;;20.86;48.15;99518.58;124207;1098;104258;-78
2022/06/21 03:00:56;;;;;;;9.20;3.80;;;;;;;20.88;48.01;99515.88;123727;1099;104292;-79
2022/06/21 03:03:31;;;;;;;11.43;3.97;;;;;;;20.90;47.21;99514.94;124202;1099;104246;-80
2022/06/21 03:06:07;;;;;;;12.53;3.97;;;;;;;20.94;48.05;99511.30;123786;1098;104233;-79
2022/06/21 03:08:40;;;;;;;10.37;3.90;;;;;;;20.97;48.36;99505.00;124241;1098;104305;-79
2022/06/21 03:11:11;;;;;;;20.77;4.07;;;;;;;20.98;48.07;99506.77;124012;1097;107132;-80
2022/06/21 03:13:44;;;;;;;12.90;4.37;;;;;;;21.01;48.41;99504.03;123977;1099;104364;-78
2022/06/21 03:16:19;;;;;;;12.75;3.92;;;;;;;21.04;47.48;99503.09;123756;1099;104235;-78
2022/06/21 03:18:55;;;;;;;14.83;4.33;;;;;;;21.04;47.58;99501.30;123664;1099;104342;-79
2022/06/21 03:21:30;;;;;;;14.80;4.20;;;;;;;21.02;47.89;99497.80;123539;1099;118868;-79
2022/06/21 03:24:03;;;;;;;17.30;4.10;;;;;;;21.08;47.73;99496.76;123523;1099;104898;-79
2022/06/21 03:26:39;;;;;;;10.85;4.17;;;;;;;21.11;47.93;99484.22;123535;1098;104354;-79
2022/06/21 03:29:11;;;;;;;12.20;4.23;;;;;;;21.15;48.61;99474.38;123644;1099;104318;-78
2022/06/21 03:31:48;;;;;;;8.93;3.83;;;;;;;21.16;47.92;99465.44;123551;1099;104348;-79
2022/06/21 03:34:24;;;;;;;11.30;4.20;;;;;;;21.12;48.83;99453.98;124109;1098;104361;-78
2022/06/21 03:36:58;;;;;;;10.67;4.47;;;;;;;21.10;48.79;99454.91;123580;1099;104364;-79
2022/06/21 03:42:28;;;;;;;9.47;4.27;;;;;;;21.10;48.34;99452.25;123639;1099;110628;-79
2022/06/21 03:45:03;;;;;;;10.63;4.13;;;;;;;21.15;48.25;99463.70;123615;1098;104319;-79
2022/06/21 03:47:41;;;;;;;17.17;4.10;;;;;;;21.23;48.41;99468.86;123795;1099;104386;-79
2022/06/21 03:50:18;;;;;;;11.67;4.03;;;;;;;21.30;47.88;99462.44;123494;1099;104418;-79
2022/06/21 03:52:57;;;;;;;10.13;4.20;;;;;;;21.35;49.00;99463.22;123842;1099;104380;-79
2022/06/21 03:55:38;;;;;;;10.83;3.70;;;;;;;21.36;48.66;99448.94;123787;1099;104313;-79
2022/06/21 03:58:22;;;;;;;11.67;4.07;;;;;;;21.35;48.43;99441.88;123906;1099;104262;-79
2022/06/21 04:00:54;;;;;;;;;;;;;;;21.36;48.38;99447.17;123781;1099;104155;-77
2022/06/21 04:03:31;;;;;;;10.30;3.80;;;;;;;21.41;48.15;99438.16;123973;1099;104415;-79
2022/06/21 04:06:08;;;;;;;7.43;3.70;;;;;;;21.42;48.57;99432.77;124099;1098;104213;-79
2022/06/21 04:08:44;;;;;;;9.40;4.20;;;;;;;21.45;48.23;99423.83;123753;1099;104236;-79
2022/06/21 04:11:22;;;;;;;9.33;3.83;;;;;;;21.47;48.84;99421.98;123745;1099;104261;-77
2022/06/21 04:14:01;;;;;;;8.60;3.67;;;;;;;21.50;48.04;99409.48;123599;1099;104246;-78
2022/06/21 04:16:42;;;;;;;8.10;3.57;;;;;;;21.52;48.09;99418.32;123803;1099;104232;-79
2022/06/21 04:19:27;;;;;;;8.47;3.70;;;;;;;21.56;49.16;99424.45;124268;1099;104255;-79
2022/06/21 04:22:09;;;;;;;7.60;3.70;;;;;;;21.63;48.92;99410.03;124625;1099;104299;-78
2022/06/21 04:24:46;;;;;;;6.13;3.23;;;;;;;21.66;48.75;99393.03;124222;1099;104299;-79
2022/06/21 04:27:24;;;;;;;6.60;3.23;;;;;;;21.70;48.40;99394.71;123977;1099;104280;-78
2022/06/21 04:29:59;;;;;;;9.50;3.60;;;;;;;21.72;48.61;99399.10;123665;1098;104607;-78
2022/06/21 04:32:35;;;;;;;8.00;3.60;;;;;;;21.77;48.93;99417.66;124520;1098;104334;-79
2022/06/21 04:35:16;;;;;;;6.70;3.30;;;;;;;21.80;48.31;99409.57;124856;1098;104259;-80
2022/06/21 04:37:56;;;;;;;6.33;3.50;;;;;;;21.81;48.37;99405.96;125311;1098;104379;-76
2022/06/21 04:40:33;;;;;;;8.97;3.90;;;;;;;21.82;48.52;99405.05;123890;1099;104697;-78
2022/06/21 04:43:10;;;;;;;10.13;3.57;;;;;;;21.85;48.18;99412.98;123752;1099;104315;-78
2022/06/21 04:45:46;;;;;;;9.87;3.40;;;;;;;21.90;48.53;99413.72;123803;1099;104702;-78
2022/06/21 04:48:31;;;;;;;8.03;3.57;;;;;;;21.96;48.51;99415.34;123815;1099;104268;-77
2022/06/21 04:51:08;;;;;;;9.50;3.63;;;;;;;22.01;48.58;99416.08;123921;1099;104290;-78
2022/06/21 04:53:52;;;;;;;11.30;3.40;;;;;;;22.06;48.48;99419.52;123913;1099;119480;-77
2022/06/21 04:56:34;;;;;;;7.20;3.20;;;;;;;22.14;48.87;99410.39;124309;1099;104427;-78
2022/06/21 04:59:20;;;;;;;10.30;3.77;;;;;;;22.20;48.39;99407.54;123970;1099;104338;-77
2022/06/21 05:05:43;;;;;;;6.90;3.23;;;;;;;22.32;49.01;99399.20;124717;1099;104303;-77
2022/06/21 05:08:26;;;;;;;7.30;3.50;;;;;;;22.41;48.41;99392.70;124865;1099;104558;-77
2022/06/21 05:11:00;;;;;;;6.00;3.30;;;;;;;22.50;48.07;99386.18;124779;1098;104492;-77
2022/06/21 05:13:43;;;;;;;6.67;3.40;;;;;;;22.57;48.11;99388.62;124328;1099;104399;-77
2022/06/21 05:16:29;;;;;;;6.93;3.27;;;;;;;22.66;48.48;99397.27;125245;1099;104227;-77
2022/06/21 05:19:27;;;;;;;;;;;;;;;;;;;;;
2022/06/21 05:22:07;;;;;;;7.27;3.60;;;;;;;22.77;47.86;99379.97;124421;1099;104322;-77
2022/06/21 05:24:40;;;;;;;9.17;3.40;;;;;;;22.83;47.88;99370.88;124722;1099;104261;-78
2022/06/21 05:30:19;;;;;;;5.70;3.03;;;;;;;23.00;47.91;99375.68;125215;1099;104217;-78
2022/06/21 05:33:07;;;;;;;8.93;3.40;;;;;;;23.06;47.67;99382.61;124533;1099;104156;-78
2022/06/21 05:35:46;;;;;;;9.00;3.60;;;;;;;23.11;47.69;99386.92;124830;1102;119869;-77
2022/06/21 05:41:32;;;;;;;10.30;3.70;;;;;;;23.27;47.74;99384.59;124607;1099;102795;-79
2022/06/21 05:44:21;;;;;;;6.30;3.47;;;;;;;23.35;47.43;99396.84;125842;1099;104194;-76
2022/06/21 05:47:04;;;;;;;7.50;3.70;;;;;;;23.40;47.37;99382.36;125882;1099;104309;-77
2022/06/21 05:49:50;;;;;;;9.90;3.60;;;;;;;23.48;47.49;99387.45;126945;1099;102996;-77
2022/06/21 05:52:30;;;;;;;9.80;3.50;;;;;;;23.54;47.86;99381.88;125056;1098;104213;-76
2022/06/21 05:55:10;;;;;;;10.57;3.60;;;;;;;23.59;47.07;99374.58;124796;1099;104265;-78
2022/06/21 05:57:51;;;;;;;7.83;3.70;;;;;;;23.66;47.30;99380.58;124835;1099;104319;-77
2022/06/21 06:00:45;;;;;;;9.23;3.40;;;;;;;23.72;46.94;99371.42;125028;1099;102580;-80
2022/06/21 06:03:39;;;;;;;12.33;3.43;;;;;;;23.79;46.85;99362.25;124598;1099;104315;-80
2022/06/21 06:09:25;;;;;;;7.47;3.60;;;;;;;23.92;46.80;99339.48;125994;1099;103046;-79
2022/06/21 06:12:13;;;;;;;9.67;3.47;;;;;;;23.97;46.55;99342.84;125835;1099;102572;-80
2022/06/21 06:15:04;;;;;;;6.30;3.00;;;;;;;24.03;46.46;99336.39;126079;1099;104242;-79
2022/06/21 06:18:03;;;;;;;10.23;3.43;;;;;;;24.11;46.30;99336.09;126051;1099;102637;-81
2022/06/21 06:21:22;;;;;;;5.40;3.20;;;;;;;24.23;46.29;99331.13;125925;1097;104162;-82
2022/06/21 06:27:58;;;;;;;5.53;3.30;;;;;;;24.41;46.06;99329.51;125869;1099;110977;-81
2022/06/21 06:31:05;;;;;;;9.30;3.47;;;;;;;24.50;45.42;99325.59;126193;1099;104258;-81
2022/06/21 06:34:02;;;;;;;;;;;;;;;;;;;;;
2022/06/21 06:37:04;;;;;;;;;;;;;;;;;;;;;
2022/06/21 06:39:59;;;;;;;8.10;3.40;;;;;;;24.73;44.96;99354.20;126055;1099;104229;-83
2022/06/21 06:42:44;;;;;;;6.33;3.43;;;;;;;24.80;44.67;99356.62;125859;1099;102729;-81
2022/06/21 06:45:31;;;;;;;8.40;4.00;;;;;;;24.84;44.83;99351.08;126076;1099;104214;-83
2022/06/21 06:48:28;;;;;;;6.40;3.50;;;;;;;24.91;44.90;99351.69;126049;1099;103869;-81
2022/06/21 06:52:00;;;;;;;9.48;3.75;;;;;;;24.99;44.63;99349.55;125076;1099;104258;-79
2022/06/21 06:55:03;;;;;;;;;;;;;;;;;;;;;
2022/06/21 06:58:04;;;;;;;14.37;4.60;;;;;;;25.23;44.81;99338.73;125970;1099;104255;-79
2022/06/21 07:01:15;;;;;;;9.10;4.07;;;;;;;25.35;44.89;99345.39;125364;1100;104431;-80
2022/06/21 07:04:25;;;;;;;11.40;3.93;;;;;;;25.46;44.38;99338.63;125205;1102;104389;-78
2022/06/21 07:10:45;;;;;;;13.27;4.03;;;;;;;25.72;44.24;99323.13;125258;1102;102174;-79
2022/06/21 07:13:18;;;;;;;9.17;4.20;;;;;;;25.82;44.06;99323.58;124993;1102;104168;-79
2022/06/21 07:15:57;;;;;;;9.77;4.07;;;;;;;25.93;44.27;99326.66;125063;1102;104245;-78
2022/06/21 07:18:45;;;;;;;;;;;;;;;26.07;43.24;99315.30;125480;1099;102794;-80
2022/06/21 07:21:24;;;;;;;11.10;4.07;;;;;;;26.25;44.10;99318.05;125576;1099;104300;-79
2022/06/21 07:24:05;;;;;;;8.57;3.93;;;;;;;26.39;43.91;99310.19;126007;1099;104216;-80
2022/06/21 07:27:11;;;;;;;;;;;;;;;;;;;;;
2022/06/21 07:29:58;;;;;;;9.53;4.00;;;;;;;26.78;43.22;99317.27;125857;1099;102818;-79
2022/06/21 07:32:53;;;;;;;9.80;4.40;;;;;;;27.01;43.21;99315.25;125994;1099;102888;-80
2022/06/21 07:35:49;;;;;;;13.37;5.13;;;;;;;27.17;42.82;99318.88;125931;1099;104152;-80
2022/06/21 07:38:48;;;;;;;10.07;4.87;;;;;;;27.34;42.80;99314.48;125980;1099;104300;-81
2022/06/21 07:41:38;;;;;;;14.90;5.07;;;;;;;27.54;42.40;99308.90;125337;1099;102727;-78
2022/06/21 07:44:32;;;;;;;13.30;4.60;;;;;;;27.71;42.28;99315.22;125771;1099;104162;-78
2022/06/21 07:47:30;;;;;;;;;;;;;;;;;;;;;
2022/06/21 07:50:48;;;;;;;12.55;5.12;;;;;;;28.15;41.75;99315.48;125031;1105;107212;-79
2022/06/21 07:53:48;;;;;;;;;;;;;;;;;;;;;
2022/06/21 07:57:15;;;;;;;12.17;4.70;;;;;;;28.58;40.84;99298.73;125154;1102;104342;-79
2022/06/21 08:00:21;;;;;;;8.57;4.17;;;;;;;28.83;41.16;99289.20;124335;1102;104309;-79
2022/06/21 08:10:05;;;;;;;10.90;4.60;;;;;;;29.45;39.80;99294.49;125552;1102;103376;-79
2022/06/21 08:13:19;;;;;;;8.83;4.20;;;;;;;29.66;39.56;99297.67;125131;1102;104312;-80
2022/06/21 08:19:31;;;;;;;9.43;4.77;;;;;;;29.96;38.83;99285.05;125783;1099;105069;-80
2022/06/21 08:22:27;;;;;;;13.17;4.73;;;;;;;30.16;38.66;99281.92;124969;1099;103098;-77
2022/06/21 08:25:21;;;;;;;17.50;6.03;;;;;;;30.34;38.52;99287.98;125066;1099;102486;-79
2022/06/21 08:28:31;;;;;;;;;;;;;;;;;;;;;
2022/06/21 08:35:37;;;;;;;;;;;;;;;;;;;;;
2022/06/21 08:38:53;;;;;;;;;;;;;;;;;;;;;
2022/06/21 08:42:21;;;;;;;15.87;6.50;;;;;;;31.21;37.19;99274.95;125300;1102;104245;-79
2022/06/21 08:45:53;;;;;;;;;;;;;;;;;;;;;
2022/06/21 08:49:23;;;;;;;;;;;;;;;;;;;;;
2022/06/21 08:52:50;;;;;;;11.57;3.90;;;;;;;31.64;36.48;99255.70;125069;1102;118244;-78
2022/06/21 08:59:24;;;;;;;9.30;3.80;;;;;;;31.80;35.97;99260.88;125905;1102;102079;-79
2022/06/21 09:06:06;;;;;;;6.97;3.70;;;;;;;32.00;35.70;99255.86;124735;1105;102299;-79
2022/06/21 09:09:49;;;;;;;6.30;3.50;;;;;;;32.07;35.42;99252.59;124880;1105;104110;-78
2022/06/21 09:13:29;;;;;;;9.10;3.60;;;;;;;32.10;34.93;99251.55;124747;1102;106758;-77
2022/06/21 09:16:28;;;;;;;5.07;3.53;;;;;;;32.12;34.19;99255.00;124910;1102;104258;-78
2022/06/21 09:19:48;;;;;;;;;;;;;;;;;;;;;
2022/06/21 09:22:52;;;;;;;7.17;3.80;;;;;;;32.22;34.06;99242.46;125898;1104;102485;-79
2022/06/21 09:26:13;;;;;;;6.50;3.70;;;;;;;32.19;33.66;99248.12;125906;1102;102765;-79
2022/06/21 09:29:12;;;;;;;5.83;3.77;;;;;;;32.34;33.81;99237.13;124738;1102;103405;-78
2022/06/21 09:32:13;;;;;;;;;;;;;;;;;;;;;
2022/06/21 09:35:17;;;;;;;8.03;3.93;;;;;;;32.36;33.27;99233.29;124265;1102;104546;-79
2022/06/21 09:38:32;;;;;;;;;;;;;;;;;;;;;
2022/06/21 09:41:24;;;;;;;6.00;3.50;;;;;;;32.47;32.94;99226.20;125378;1102;104316;-78
2022/06/21 09:44:30;;;;;;;9.07;3.80;;;;;;;32.61;32.81;99229.61;126025;1099;102649;-78
2022/06/21 09:47:28;;;;;;;9.07;3.80;;;;;;;32.70;32.76;99221.77;126238;1099;104216;-80
2022/06/21 09:50:09;;;;;;;5.77;3.43;;;;;;;32.76;32.85;99205.00;125964;1099;104618;-79
2022/06/21 09:52:56;;;;;;;9.58;4.05;;;;;;;32.90;32.91;99214.80;125994;1099;102898;-79
2022/06/21 09:55:45;;;;;;;6.90;3.70;;;;;;;32.99;32.53;99199.61;127088;1098;103873;-79
2022/06/21 09:58:30;;;;;;;10.00;3.90;;;;;;;32.99;32.30;99205.93;126775;1098;102704;-78
2022/06/21 10:01:12;;;;;;;6.23;3.43;;;;;;;32.98;32.06;99197.90;126449;1098;104169;-77
2022/06/21 10:04:02;;;;;;;6.13;3.30;;;;;;;32.96;31.16;99203.45;125894;1099;113131;-80
2022/06/21 10:06:47;;;;;;;8.27;3.70;;;;;;;32.89;31.19;99196.75;126021;1099;104271;-78
2022/06/21 10:09:37;;;;;;;6.80;3.60;;;;;;;32.86;31.32;99189.70;125131;1099;104277;-80
2022/06/21 10:12:30;;;;;;;5.20;3.50;;;;;;;32.82;31.28;99179.19;125979;1098;102965;-79
2022/06/21 10:15:38;;;;;;;11.73;3.80;;;;;;;32.82;31.29;99174.65;126132;1099;104287;-79
2022/06/21 10:18:58;;;;;;;6.63;3.50;;;;;;;32.83;31.62;99168.20;126127;1099;104235;-80
2022/06/21 10:22:07;;;;;;;7.70;3.60;;;;;;;32.87;31.60;99171.58;126045;1098;103968;-79
2022/06/21 10:25:15;;;;;;;8.43;3.67;;;;;;;32.99;31.34;99172.44;125295;1099;121394;-78
2022/06/21 10:28:07;;;;;;;8.30;3.80;;;;;;;33.06;31.17;99162.83;126140;1099;103203;-77
2022/06/21 10:30:59;;;;;;;7.33;3.57;;;;;;;33.23;31.05;99156.94;126214;1099;104210;-78
2022/06/21 10:33:59;;;;;;;5.03;3.62;;;;;;;33.23;30.62;99156.94;126052;1098;104088;-80
2022/06/21 10:36:51;;;;;;;6.57;3.73;;;;;;;33.29;30.65;99153.73;126108;1099;102427;-80
2022/06/21 10:39:45;;;;;;;5.87;3.70;;;;;;;33.43;30.79;99143.61;126173;1099;102095;-78
2022/06/21 10:42:48;;;;;;;6.50;3.87;;;;;;;33.51;30.34;99138.41;126272;1099;104207;-78
2022/06/21 10:45:42;;;;;;;29.00;4.70;;;;;;;33.58;30.25;99134.20;126268;1099;102597;-80
2022/06/21 10:49:09;;;;;;;10.50;4.10;;;;;;;33.74;30.32;99136.55;125341;1100;104322;-80
2022/06/21 10:51:59;;;;;;;10.20;3.87;;;;;;;33.67;29.90;99141.61;124941;1102;103783;-79
2022/06/21 10:55:05;;;;;;;8.93;3.93;;;;;;;33.77;29.70;99129.98;125451;1099;103029;-81
2022/06/21 10:57:52;;;;;;;6.80;3.80;;;;;;;33.93;29.92;99133.16;125379;1099;102965;-77
2022/06/21 11:04:17;;;;;;;10.33;3.97;;;;;;;33.75;29.80;99123.80;125142;1099;102549;-80
2022/06/21 11:07:16;;;;;;;5.73;3.80;;;;;;;33.55;29.53;99130.85;124875;1099;104204;-77
2022/06/21 11:10:11;;;;;;;9.80;4.17;;;;;;;33.34;29.63;99131.62;124938;1099;104258;-77
2022/06/21 11:13:14;;;;;;;8.63;3.90;;;;;;;33.27;29.58;99133.97;125941;1099;104284;-78
2022/06/21 11:16:02;;;;;;;13.10;3.95;;;;;;;33.18;29.43;99129.28;125062;1099;103686;-79
2022/06/21 11:18:55;;;;;;;7.33;3.85;;;;;;;33.26;29.64;99132.23;125121;1098;103437;-80
2022/06/21 11:21:45;;;;;;;7.17;4.20;;;;;;;33.39;29.31;99123.09;124596;1099;103113;-79
2022/06/21 11:25:10;;;;;;;;;;;;;;;;;;;;;
2022/06/21 11:28:10;;;;;;;9.83;3.90;;;;;;;33.67;28.76;99125.30;126079;1099;102958;-79
2022/06/21 11:31:00;;;;;;;7.57;3.90;;;;;;;33.75;29.02;99124.66;125690;1102;102889;-78
2022/06/21 11:33:40;;;;;;;6.53;3.60;;;;;;;33.91;29.18;99121.55;125357;1102;104264;-80
2022/06/21 11:36:29;;;;;;;8.10;4.13;;;;;;;33.98;28.68;99121.89;125264;1099;102369;-77
2022/06/21 11:39:48;;;;;;;;;;;;;;;;;;;;;
2022/06/21 11:42:37;;;;;;;5.53;4.03;;;;;;;33.92;28.42;99117.82;125595;1099;103347;-79
2022/06/21 11:45:45;;;;;;;9.83;4.50;;;;;;;33.87;28.21;99125.52;125479;1099;104265;-79
2022/06/21 11:49:07;;;;;;;11.00;4.13;;;;;;;33.82;28.29;99114.16;124875;1099;104511;-80
2022/06/21 11:52:16;;;;;;;9.85;4.50;;;;;;;33.65;28.06;99112.80;125820;1099;102239;-81
2022/06/21 11:54:57;;;;;;;10.07;4.10;;;;;;;33.65;28.22;99118.23;125762;1099;104313;-78
2022/06/21 11:57:48;;;;;;;6.77;4.20;;;;;;;33.59;27.96;99116.03;125981;1099;102289;-77
2022/06/21 12:00:34;;;;;;;7.97;4.50;;;;;;;33.52;27.92;99110.23;125891;1099;104255;-78
2022/06/21 12:03:19;;;;;;;6.70;4.17;;;;;;;33.46;28.13;99103.44;124913;1098;103261;-79
2022/06/21 12:06:09;;;;;;;;;;;;;;;;;;;;;
2022/06/21 12:08:54;;;;;;;8.63;4.10;;;;;;;33.44;28.16;99109.97;125981;1099;104236;-79
2022/06/21 12:11:50;;;;;;;9.77;4.60;;;;;;;33.35;28.46;99108.01;125708;1099;102078;-80
2022/06/21 12:14:37;;;;;;;5.53;3.97;;;;;;;33.27;28.67;99104.08;127128;1097;102130;-79
2022/06/21 12:17:31;;;;;;;10.40;4.30;;;;;;;33.23;28.71;99099.87;126945;1098;102274;-79
2022/06/21 12:20:13;;;;;;;10.20;4.70;;;;;;;33.10;28.75;99082.81;126926;1098;103234;-79
2022/06/21 12:22:56;;;;;;;6.30;4.37;;;;;;;32.99;29.02;99082.78;126846;1098;102042;-82
2022/06/21 12:25:47;;;;;;;6.53;4.10;;;;;;;32.88;29.31;99075.50;126873;1099;103944;-79
2022/06/21 12:28:27;;;;;;;32.43;7.20;;;;;;;32.73;29.35;99073.02;126516;1099;102217;-79
2022/06/21 12:31:06;;;;;;;21.53;5.20;;;;;;;32.60;29.84;99074.96;125773;1099;104235;-78
2022/06/21 12:33:46;;;;;;;7.20;4.30;;;;;;;32.50;29.95;99072.08;125981;1099;104177;-78
2022/06/21 12:36:42;;;;;;;9.10;4.53;;;;;;;32.40;30.04;99084.66;125780;1099;104233;-79
2022/06/21 12:39:27;;;;;;;11.13;4.10;;;;;;;32.35;30.24;99075.98;125788;1099;103792;-78
2022/06/21 12:42:28;;;;;;;13.13;4.30;;;;;;;32.31;30.30;99077.23;126957;1099;102175;-78
2022/06/21 12:45:17;;;;;;;11.17;4.30;;;;;;;32.26;30.55;99083.02;127190;1097;103073;-79
2022/06/21 12:48:18;;;;;;;10.63;4.07;;;;;;;32.22;30.61;99090.50;127098;1097;103197;-79
2022/06/21 12:51:00;;;;;;;6.17;4.33;;;;;;;32.17;30.61;99092.71;126850;1099;103559;-77
2022/06/21 12:54:08;;;;;;;7.97;4.83;;;;;;;32.22;30.81;99087.78;126071;1099;102525;-79
2022/06/21 12:57:03;;;;;;;11.67;4.60;;;;;;;32.33;30.76;99086.96;126105;1099;102072;-79
2022/06/21 13:03:52;;;;;;;9.78;5.28;;;;;;;32.87;30.91;99093.66;126204;1099;102054;-79
2022/06/21 13:06:40;;;;;;;10.10;5.07;;;;;;;33.18;30.84;99090.34;125429;1099;104166;-80
2022/06/21 13:09:55;;;;;;;8.67;4.30;;;;;;;33.36;30.86;99088.00;125037;1098;104329;-78
2022/06/21 13:13:18;;;;;;;;;;;;;;;;;;;;;
2022/06/21 13:16:19;;;;;;;12.27;5.10;;;;;;;33.41;30.72;99085.77;125459;1102;104303;-79
2022/06/21 13:19:39;;;;;;;13.62;5.05;;;;;;;33.35;30.73;99095.30;125389;1102;104290;-80
2022/06/21 13:22:51;;;;;;;16.00;5.57;;;;;;;33.27;31.22;99095.92;125277;1102;104286;-77
2022/06/21 13:25:37;;;;;;;8.37;5.23;;;;;;;33.15;31.78;99097.73;124041;1102;104417;-77
2022/06/21 13:28:26;;;;;;;12.13;5.97;;;;;;;33.04;31.56;99095.02;124533;1102;104185;-78
2022/06/21 13:31:27;;;;;;;10.73;5.60;;;;;;;33.00;31.74;99092.68;125147;1099;111405;-78
2022/06/21 13:34:06;;;;;;;16.93;5.80;;;;;;;32.95;32.15;99095.77;124223;1099;104421;-77
2022/06/21 13:36:56;;;;;;;16.27;6.00;;;;;;;32.95;32.18;99091.19;124247;1099;104341;-77
2022/06/21 13:39:43;;;;;;;11.63;5.67;;;;;;;32.96;32.71;99087.48;124735;1099;105565;-78
2022/06/21 13:42:50;;;;;;;14.63;6.43;;;;;;;32.86;33.22;99094.63;124994;1099;102911;-79
2022/06/21 13:45:45;;;;;;;13.60;5.90;;;;;;;32.68;34.04;99099.69;124751;1098;104245;-77
2022/06/21 13:48:30;;;;;;;14.50;6.40;;;;;;;32.70;33.87;99091.42;124848;1099;104230;-77
2022/06/21 13:51:32;;;;;;;12.80;5.67;;;;;;;32.83;34.32;99092.16;124929;1099;104176;-78
2022/06/21 13:54:16;;;;;;;13.93;5.60;;;;;;;32.86;34.41;99094.63;125891;1099;103837;-77
2022/06/21 13:56:58;;;;;;;12.47;6.30;;;;;;;32.76;34.10;99094.50;125802;1098;104162;-79
2022/06/21 13:59:43;;;;;;;17.10;6.73;;;;;;;32.72;34.50;99084.86;125710;1098;104191;-77
2022/06/21 14:02:41;;;;;;;17.20;6.10;;;;;;;32.65;34.83;99086.34;127036;1097;103355;-80
2022/06/21 14:05:25;;;;;;;15.83;5.60;;;;;;;32.53;34.79;99076.41;124992;1099;104188;-79
2022/06/21 14:08:04;;;;;;;14.63;6.15;;;;;;;32.50;35.03;99082.94;125884;1098;102623;-79
2022/06/21 14:10:51;;;;;;;19.63;5.63;;;;;;;32.44;35.67;99091.56;125840;1099;104185;-80